sensor_id;sensor_type;location;lat;lon;timestamp;P1;durP1;ratioP1;P2;durP2;ratioP2
32760;SDS011;19126;47.472;7.850;2022-08-21T00:00:22;10.45;;;2.15;;
32760;SDS011;19126;47.472;7.850;2022-08-21T00:02:53;4.85;;;2.53;;
32760;SDS011;19126;47.472;7.850;2022-08-21T00:05:24;5.70;;;2.20;;
32760;SDS011;19126;47.472;7.850;2022-08-21T00:07:52;7.38;;;2.50;;
32760;SDS011;19126;47.472;7.850;2022-08-21T00:10:20;9.48;;;3.08;;
32760;SDS011;19126;47.472;7.850;2022-08-21T00:12:48;11.35;;;3.00;;
32760;SDS011;19126;47.472;7.850;2022-08-21T00:15:18;7.72;;;2.38;;
32760;SDS011;19126;47.472;7.850;2022-08-21T00:17:51;6.90;;;1.98;;
32760;SDS011;19126;47.472;7.850;2022-08-21T00:20:19;8.80;;;2.50;;
32760;SDS011;19126;47.472;7.850;2022-08-21T00:22:47;8.90;;;2.72;;
32760;SDS011;19126;47.472;7.850;2022-08-21T00:25:15;8.00;;;2.85;;
32760;SDS011;19126;47.472;7.850;2022-08-21T00:27:42;6.30;;;2.53;;
32760;SDS011;19126;47.472;7.850;2022-08-21T00:30:11;5.55;;;3.08;;
32760;SDS011;19126;47.472;7.850;2022-08-21T00:32:41;8.40;;;2.83;;
32760;SDS011;19126;47.472;7.850;2022-08-21T00:35:11;12.18;;;2.80;;
32760;SDS011;19126;47.472;7.850;2022-08-21T00:37:42;6.13;;;2.58;;
32760;SDS011;19126;47.472;7.850;2022-08-21T00:40:11;11.50;;;2.38;;
32760;SDS011;19126;47.472;7.850;2022-08-21T00:42:44;5.07;;;2.50;;
32760;SDS011;19126;47.472;7.850;2022-08-21T00:45:12;4.65;;;2.53;;
32760;SDS011;19126;47.472;7.850;2022-08-21T00:47:39;11.57;;;2.25;;
32760;SDS011;19126;47.472;7.850;2022-08-21T00:50:08;7.00;;;2.90;;
32760;SDS011;19126;47.472;7.850;2022-08-21T00:52:37;3.92;;;2.22;;
32760;SDS011;19126;47.472;7.850;2022-08-21T00:55:07;6.82;;;2.70;;
32760;SDS011;19126;47.472;7.850;2022-08-21T00:57:36;6.03;;;2.20;;
32760;SDS011;19126;47.472;7.850;2022-08-21T01:00:10;5.18;;;2.65;;
32760;SDS011;19126;47.472;7.850;2022-08-21T01:02:46;4.90;;;2.42;;
32760;SDS011;19126;47.472;7.850;2022-08-21T01:05:14;14.65;;;2.72;;
32760;SDS011;19126;47.472;7.850;2022-08-21T01:07:42;3.30;;;2.25;;
32760;SDS011;19126;47.472;7.850;2022-08-21T01:10:10;8.43;;;2.63;;
32760;SDS011;19126;47.472;7.850;2022-08-21T01:12:39;2.92;;;2.13;;
32760;SDS011;19126;47.472;7.850;2022-08-21T01:15:10;8.25;;;2.97;;
32760;SDS011;19126;47.472;7.850;2022-08-21T01:17:41;14.60;;;2.63;;
32760;SDS011;19126;47.472;7.850;2022-08-21T01:20:10;15.93;;;3.65;;
32760;SDS011;19126;47.472;7.850;2022-08-21T01:22:39;7.50;;;2.50;;
32760;SDS011;19126;47.472;7.850;2022-08-21T01:25:07;5.40;;;2.20;;
32760;SDS011;19126;47.472;7.850;2022-08-21T01:27:37;16.17;;;3.38;;
32760;SDS011;19126;47.472;7.850;2022-08-21T01:30:07;7.07;;;2.35;;
32760;SDS011;19126;47.472;7.850;2022-08-21T01:32:39;4.68;;;2.40;;
32760;SDS011;19126;47.472;7.850;2022-08-21T01:35:07;17.05;;;2.65;;
32760;SDS011;19126;47.472;7.850;2022-08-21T01:37:34;5.55;;;2.35;;
32760;SDS011;19126;47.472;7.850;2022-08-21T01:40:04;8.10;;;3.22;;
32760;SDS011;19126;47.472;7.850;2022-08-21T01:42:33;16.92;;;3.00;;
32760;SDS011;19126;47.472;7.850;2022-08-21T01:45:01;8.40;;;2.45;;
32760;SDS011;19126;47.472;7.850;2022-08-21T01:47:28;11.07;;;3.10;;
32760;SDS011;19126;47.472;7.850;2022-08-21T01:49:56;4.47;;;2.40;;
32760;SDS011;19126;47.472;7.850;2022-08-21T01:52:23;13.38;;;3.13;;
32760;SDS011;19126;47.472;7.850;2022-08-21T01:54:50;16.23;;;2.72;;
32760;SDS011;19126;47.472;7.850;2022-08-21T01:57:19;3.33;;;2.65;;
32760;SDS011;19126;47.472;7.850;2022-08-21T01:59:47;7.63;;;2.60;;
32760;SDS011;19126;47.472;7.850;2022-08-21T02:02:14;8.30;;;2.97;;
32760;SDS011;19126;47.472;7.850;2022-08-21T02:04:41;3.88;;;2.78;;
32760;SDS011;19126;47.472;7.850;2022-08-21T02:07:08;13.23;;;2.95;;
32760;SDS011;19126;47.472;7.850;2022-08-21T02:09:36;9.55;;;3.20;;
32760;SDS011;19126;47.472;7.850;2022-08-21T02:12:03;5.72;;;3.03;;
32760;SDS011;19126;47.472;7.850;2022-08-21T02:14:32;7.25;;;3.17;;
32760;SDS011;19126;47.472;7.850;2022-08-21T02:17:00;6.75;;;3.95;;
32760;SDS011;19126;47.472;7.850;2022-08-21T02:19:27;6.15;;;3.00;;
32760;SDS011;19126;47.472;7.850;2022-08-21T02:21:54;11.57;;;3.30;;
32760;SDS011;19126;47.472;7.850;2022-08-21T02:24:21;9.07;;;3.88;;
32760;SDS011;19126;47.472;7.850;2022-08-21T02:26:48;6.68;;;3.30;;
32760;SDS011;19126;47.472;7.850;2022-08-21T02:29:15;14.90;;;3.53;;
32760;SDS011;19126;47.472;7.850;2022-08-21T02:31:44;20.60;;;5.20;;
32760;SDS011;19126;47.472;7.850;2022-08-21T02:34:11;27.48;;;5.85;;
32760;SDS011;19126;47.472;7.850;2022-08-21T02:36:38;39.47;;;6.43;;
32760;SDS011;19126;47.472;7.850;2022-08-21T02:39:05;28.17;;;6.15;;
32760;SDS011;19126;47.472;7.850;2022-08-21T02:41:32;38.38;;;6.00;;
32760;SDS011;19126;47.472;7.850;2022-08-21T02:44:00;21.63;;;6.20;;
32760;SDS011;19126;47.472;7.850;2022-08-21T02:46:27;69.13;;;6.65;;
32760;SDS011;19126;47.472;7.850;2022-08-21T02:48:57;40.22;;;6.53;;
32760;SDS011;19126;47.472;7.850;2022-08-21T02:51:24;38.83;;;8.30;;
32760;SDS011;19126;47.472;7.850;2022-08-21T02:53:52;25.55;;;6.55;;
32760;SDS011;19126;47.472;7.850;2022-08-21T02:56:21;14.98;;;5.93;;
32760;SDS011;19126;47.472;7.850;2022-08-21T02:58:49;10.02;;;5.75;;
32760;SDS011;19126;47.472;7.850;2022-08-21T03:01:18;7.90;;;5.53;;
32760;SDS011;19126;47.472;7.850;2022-08-21T03:03:47;14.68;;;5.95;;
32760;SDS011;19126;47.472;7.850;2022-08-21T03:06:17;17.02;;;6.03;;
32760;SDS011;19126;47.472;7.850;2022-08-21T03:08:47;13.23;;;6.00;;
32760;SDS011;19126;47.472;7.850;2022-08-21T03:11:15;8.23;;;5.32;;
32760;SDS011;19126;47.472;7.850;2022-08-21T03:13:42;11.48;;;5.30;;
32760;SDS011;19126;47.472;7.850;2022-08-21T03:16:10;12.45;;;5.28;;
32760;SDS011;19126;47.472;7.850;2022-08-21T03:18:37;7.45;;;4.00;;
32760;SDS011;19126;47.472;7.850;2022-08-21T03:21:04;11.43;;;5.57;;
32760;SDS011;19126;47.472;7.850;2022-08-21T03:23:33;17.35;;;5.65;;
32760;SDS011;19126;47.472;7.850;2022-08-21T03:26:00;14.07;;;6.03;;
32760;SDS011;19126;47.472;7.850;2022-08-21T03:28:27;7.28;;;5.38;;
32760;SDS011;19126;47.472;7.850;2022-08-21T03:30:55;7.82;;;4.47;;
32760;SDS011;19126;47.472;7.850;2022-08-21T03:33:22;10.98;;;5.03;;
32760;SDS011;19126;47.472;7.850;2022-08-21T03:35:55;7.13;;;4.65;;
32760;SDS011;19126;47.472;7.850;2022-08-21T03:38:26;12.65;;;4.30;;
32760;SDS011;19126;47.472;7.850;2022-08-21T03:40:57;5.40;;;4.55;;
32760;SDS011;19126;47.472;7.850;2022-08-21T03:43:25;18.73;;;3.83;;
32760;SDS011;19126;47.472;7.850;2022-08-21T03:45:52;4.47;;;3.83;;
32760;SDS011;19126;47.472;7.850;2022-08-21T03:48:20;11.07;;;3.28;;
32760;SDS011;19126;47.472;7.850;2022-08-21T03:50:47;7.68;;;4.05;;
32760;SDS011;19126;47.472;7.850;2022-08-21T03:53:18;13.55;;;4.72;;
32760;SDS011;19126;47.472;7.850;2022-08-21T03:55:45;19.13;;;5.47;;
32760;SDS011;19126;47.472;7.850;2022-08-21T03:58:15;9.48;;;4.95;;
32760;SDS011;19126;47.472;7.850;2022-08-21T04:00:45;5.50;;;4.90;;
32760;SDS011;19126;47.472;7.850;2022-08-21T04:03:15;7.60;;;4.93;;
32760;SDS011;19126;47.472;7.850;2022-08-21T04:05:43;7.50;;;4.85;;
32760;SDS011;19126;47.472;7.850;2022-08-21T04:08:11;7.10;;;3.67;;
32760;SDS011;19126;47.472;7.850;2022-08-21T04:10:40;6.32;;;4.10;;
32760;SDS011;19126;47.472;7.850;2022-08-21T04:13:09;4.63;;;4.22;;
32760;SDS011;19126;47.472;7.850;2022-08-21T04:15:38;10.85;;;5.25;;
32760;SDS011;19126;47.472;7.850;2022-08-21T04:18:06;10.20;;;6.07;;
32760;SDS011;19126;47.472;7.850;2022-08-21T04:20:33;6.25;;;5.55;;
32760;SDS011;19126;47.472;7.850;2022-08-21T04:23:00;12.93;;;5.97;;
32760;SDS011;19126;47.472;7.850;2022-08-21T04:25:28;13.45;;;5.55;;
32760;SDS011;19126;47.472;7.850;2022-08-21T04:27:56;14.20;;;6.40;;
32760;SDS011;19126;47.472;7.850;2022-08-21T04:30:23;12.77;;;6.57;;
32760;SDS011;19126;47.472;7.850;2022-08-21T04:32:53;7.47;;;5.10;;
32760;SDS011;19126;47.472;7.850;2022-08-21T04:35:21;6.03;;;5.22;;
32760;SDS011;19126;47.472;7.850;2022-08-21T04:37:50;7.03;;;5.35;;
32760;SDS011;19126;47.472;7.850;2022-08-21T04:40:18;9.70;;;5.22;;
32760;SDS011;19126;47.472;7.850;2022-08-21T04:42:48;12.18;;;4.40;;
32760;SDS011;19126;47.472;7.850;2022-08-21T04:45:18;7.85;;;5.25;;
32760;SDS011;19126;47.472;7.850;2022-08-21T04:47:48;7.15;;;4.60;;
32760;SDS011;19126;47.472;7.850;2022-08-21T04:50:18;8.18;;;4.70;;
32760;SDS011;19126;47.472;7.850;2022-08-21T04:52:46;5.28;;;4.05;;
32760;SDS011;19126;47.472;7.850;2022-08-21T04:55:13;9.07;;;4.05;;
32760;SDS011;19126;47.472;7.850;2022-08-21T04:57:42;7.75;;;3.70;;
32760;SDS011;19126;47.472;7.850;2022-08-21T05:00:10;9.55;;;4.03;;
32760;SDS011;19126;47.472;7.850;2022-08-21T05:02:39;5.45;;;3.72;;
32760;SDS011;19126;47.472;7.850;2022-08-21T05:05:07;5.43;;;4.50;;
32760;SDS011;19126;47.472;7.850;2022-08-21T05:07:36;5.45;;;4.25;;
32760;SDS011;19126;47.472;7.850;2022-08-21T05:10:04;6.20;;;4.50;;
32760;SDS011;19126;47.472;7.850;2022-08-21T05:12:33;7.43;;;5.03;;
32760;SDS011;19126;47.472;7.850;2022-08-21T05:15:01;7.15;;;5.00;;
32760;SDS011;19126;47.472;7.850;2022-08-21T05:17:29;18.05;;;5.20;;
32760;SDS011;19126;47.472;7.850;2022-08-21T05:19:56;5.80;;;5.18;;
32760;SDS011;19126;47.472;7.850;2022-08-21T05:22:23;8.90;;;5.43;;
32760;SDS011;19126;47.472;7.850;2022-08-21T05:24:52;9.02;;;5.55;;
32760;SDS011;19126;47.472;7.850;2022-08-21T05:27:19;10.02;;;5.40;;
32760;SDS011;19126;47.472;7.850;2022-08-21T05:29:47;6.50;;;5.82;;
32760;SDS011;19126;47.472;7.850;2022-08-21T05:32:18;52.22;;;6.15;;
32760;SDS011;19126;47.472;7.850;2022-08-21T05:34:45;82.05;;;6.75;;
32760;SDS011;19126;47.472;7.850;2022-08-21T05:37:13;32.03;;;6.68;;
32760;SDS011;19126;47.472;7.850;2022-08-21T05:39:40;29.30;;;7.25;;
32760;SDS011;19126;47.472;7.850;2022-08-21T05:42:09;21.55;;;5.97;;
32760;SDS011;19126;47.472;7.850;2022-08-21T05:44:36;9.90;;;6.18;;
32760;SDS011;19126;47.472;7.850;2022-08-21T05:47:04;9.65;;;6.00;;
32760;SDS011;19126;47.472;7.850;2022-08-21T05:49:32;18.00;;;5.07;;
32760;SDS011;19126;47.472;7.850;2022-08-21T05:52:00;9.35;;;5.80;;
32760;SDS011;19126;47.472;7.850;2022-08-21T05:54:29;8.85;;;5.55;;
32760;SDS011;19126;47.472;7.850;2022-08-21T05:56:57;11.95;;;6.25;;
32760;SDS011;19126;47.472;7.850;2022-08-21T05:59:25;10.75;;;5.07;;
32760;SDS011;19126;47.472;7.850;2022-08-21T06:01:53;6.13;;;5.43;;
32760;SDS011;19126;47.472;7.850;2022-08-21T06:04:21;7.55;;;5.82;;
32760;SDS011;19126;47.472;7.850;2022-08-21T06:06:48;7.45;;;5.75;;
32760;SDS011;19126;47.472;7.850;2022-08-21T06:09:15;8.30;;;5.82;;
32760;SDS011;19126;47.472;7.850;2022-08-21T06:11:42;11.38;;;6.05;;
32760;SDS011;19126;47.472;7.850;2022-08-21T06:14:09;9.85;;;6.25;;
32760;SDS011;19126;47.472;7.850;2022-08-21T06:16:41;12.70;;;6.35;;
32760;SDS011;19126;47.472;7.850;2022-08-21T06:19:08;8.25;;;5.85;;
32760;SDS011;19126;47.472;7.850;2022-08-21T06:21:35;11.98;;;5.88;;
32760;SDS011;19126;47.472;7.850;2022-08-21T06:24:02;13.32;;;5.57;;
32760;SDS011;19126;47.472;7.850;2022-08-21T06:26:30;6.40;;;4.85;;
32760;SDS011;19126;47.472;7.850;2022-08-21T06:28:58;9.00;;;5.15;;
32760;SDS011;19126;47.472;7.850;2022-08-21T06:31:26;16.02;;;4.90;;
32760;SDS011;19126;47.472;7.850;2022-08-21T06:33:56;7.53;;;5.18;;
32760;SDS011;19126;47.472;7.850;2022-08-21T06:36:23;11.90;;;5.25;;
32760;SDS011;19126;47.472;7.850;2022-08-21T06:38:50;6.32;;;4.80;;
32760;SDS011;19126;47.472;7.850;2022-08-21T06:41:18;12.73;;;5.45;;
32760;SDS011;19126;47.472;7.850;2022-08-21T06:43:45;18.15;;;9.18;;
32760;SDS011;19126;47.472;7.850;2022-08-21T06:46:12;30.75;;;11.52;;
32760;SDS011;19126;47.472;7.850;2022-08-21T06:48:39;22.42;;;10.70;;
32760;SDS011;19126;47.472;7.850;2022-08-21T06:51:08;32.45;;;11.90;;
32760;SDS011;19126;47.472;7.850;2022-08-21T06:53:35;28.25;;;11.80;;
32760;SDS011;19126;47.472;7.850;2022-08-21T06:56:03;20.25;;;10.85;;
32760;SDS011;19126;47.472;7.850;2022-08-21T06:58:31;16.17;;;10.23;;
32760;SDS011;19126;47.472;7.850;2022-08-21T07:00:58;17.08;;;10.73;;
32760;SDS011;19126;47.472;7.850;2022-08-21T07:03:26;17.95;;;10.95;;
32760;SDS011;19126;47.472;7.850;2022-08-21T07:05:55;16.95;;;10.45;;
32760;SDS011;19126;47.472;7.850;2022-08-21T07:08:24;19.75;;;8.65;;
32760;SDS011;19126;47.472;7.850;2022-08-21T07:10:53;14.05;;;7.43;;
32760;SDS011;19126;47.472;7.850;2022-08-21T07:13:22;10.23;;;7.60;;
32760;SDS011;19126;47.472;7.850;2022-08-21T07:15:49;10.25;;;7.57;;
32760;SDS011;19126;47.472;7.850;2022-08-21T07:18:16;11.80;;;7.07;;
32760;SDS011;19126;47.472;7.850;2022-08-21T07:20:44;7.65;;;6.25;;
32760;SDS011;19126;47.472;7.850;2022-08-21T07:23:12;12.50;;;6.63;;
32760;SDS011;19126;47.472;7.850;2022-08-21T07:25:52;10.70;;;7.38;;
32760;SDS011;19126;47.472;7.850;2022-08-21T07:28:19;11.20;;;6.68;;
32760;SDS011;19126;47.472;7.850;2022-08-21T07:30:50;7.47;;;6.22;;
32760;SDS011;19126;47.472;7.850;2022-08-21T07:33:18;5.80;;;4.95;;
32760;SDS011;19126;47.472;7.850;2022-08-21T07:35:45;7.57;;;4.10;;
32760;SDS011;19126;47.472;7.850;2022-08-21T07:38:12;5.20;;;4.03;;
32760;SDS011;19126;47.472;7.850;2022-08-21T07:40:39;9.82;;;4.45;;
32760;SDS011;19126;47.472;7.850;2022-08-21T07:43:08;5.50;;;4.10;;
32760;SDS011;19126;47.472;7.850;2022-08-21T07:45:36;5.28;;;3.95;;
32760;SDS011;19126;47.472;7.850;2022-08-21T07:48:04;5.38;;;3.78;;
32760;SDS011;19126;47.472;7.850;2022-08-21T07:50:31;3.70;;;3.35;;
32760;SDS011;19126;47.472;7.850;2022-08-21T07:52:58;5.85;;;3.45;;
32760;SDS011;19126;47.472;7.850;2022-08-21T07:55:25;8.93;;;3.53;;
32760;SDS011;19126;47.472;7.850;2022-08-21T07:57:52;5.45;;;4.00;;
32760;SDS011;19126;47.472;7.850;2022-08-21T08:00:22;7.45;;;4.75;;
32760;SDS011;19126;47.472;7.850;2022-08-21T08:02:52;4.65;;;3.50;;
32760;SDS011;19126;47.472;7.850;2022-08-21T08:05:27;5.15;;;3.38;;
32760;SDS011;19126;47.472;7.850;2022-08-21T08:07:56;6.03;;;3.50;;
32760;SDS011;19126;47.472;7.850;2022-08-21T08:10:23;5.78;;;3.78;;
32760;SDS011;19126;47.472;7.850;2022-08-21T08:12:51;9.30;;;3.38;;
32760;SDS011;19126;47.472;7.850;2022-08-21T08:15:22;5.28;;;2.95;;
32760;SDS011;19126;47.472;7.850;2022-08-21T08:17:51;7.57;;;3.05;;
32760;SDS011;19126;47.472;7.850;2022-08-21T08:20:21;7.50;;;2.30;;
32760;SDS011;19126;47.472;7.850;2022-08-21T08:22:50;7.15;;;2.40;;
32760;SDS011;19126;47.472;7.850;2022-08-21T08:25:18;7.20;;;2.47;;
32760;SDS011;19126;47.472;7.850;2022-08-21T08:27:47;8.00;;;2.42;;
32760;SDS011;19126;47.472;7.850;2022-08-21T08:30:15;8.65;;;2.80;;
32760;SDS011;19126;47.472;7.850;2022-08-21T08:32:45;7.43;;;2.35;;
32760;SDS011;19126;47.472;7.850;2022-08-21T08:35:13;8.05;;;2.20;;
32760;SDS011;19126;47.472;7.850;2022-08-21T08:37:41;10.98;;;2.78;;
32760;SDS011;19126;47.472;7.850;2022-08-21T08:40:11;6.65;;;2.22;;
32760;SDS011;19126;47.472;7.850;2022-08-21T08:45:10;8.85;;;2.70;;
32760;SDS011;19126;47.472;7.850;2022-08-21T08:47:40;6.72;;;2.70;;
32760;SDS011;19126;47.472;7.850;2022-08-21T08:50:39;6.60;;;2.35;;
32760;SDS011;19126;47.472;7.850;2022-08-21T08:53:12;4.90;;;2.30;;
32760;SDS011;19126;47.472;7.850;2022-08-21T08:55:45;6.85;;;2.60;;
32760;SDS011;19126;47.472;7.850;2022-08-21T08:58:14;3.70;;;2.13;;
32760;SDS011;19126;47.472;7.850;2022-08-21T09:00:49;4.72;;;2.22;;
32760;SDS011;19126;47.472;7.850;2022-08-21T09:03:21;10.43;;;2.15;;
32760;SDS011;19126;47.472;7.850;2022-08-21T09:05:52;2.33;;;1.70;;
32760;SDS011;19126;47.472;7.850;2022-08-21T09:08:37;7.40;;;2.20;;
32760;SDS011;19126;47.472;7.850;2022-08-21T09:11:19;2.80;;;2.00;;
32760;SDS011;19126;47.472;7.850;2022-08-21T09:13:57;3.08;;;2.05;;
32760;SDS011;19126;47.472;7.850;2022-08-21T09:16:44;6.63;;;1.65;;
32760;SDS011;19126;47.472;7.850;2022-08-21T09:22:23;5.13;;;1.73;;
32760;SDS011;19126;47.472;7.850;2022-08-21T09:25:08;15.13;;;1.55;;
32760;SDS011;19126;47.472;7.850;2022-08-21T09:27:43;10.38;;;2.13;;
32760;SDS011;19126;47.472;7.850;2022-08-21T09:30:11;4.15;;;1.50;;
32760;SDS011;19126;47.472;7.850;2022-08-21T09:32:39;3.33;;;1.63;;
32760;SDS011;19126;47.472;7.850;2022-08-21T09:35:09;4.60;;;1.70;;
32760;SDS011;19126;47.472;7.850;2022-08-21T09:37:48;2.45;;;1.17;;
32760;SDS011;19126;47.472;7.850;2022-08-21T09:40:32;1.40;;;1.30;;
32760;SDS011;19126;47.472;7.850;2022-08-21T09:43:05;3.22;;;1.60;;
32760;SDS011;19126;47.472;7.850;2022-08-21T09:45:46;1.40;;;1.20;;
32760;SDS011;19126;47.472;7.850;2022-08-21T09:48:26;5.17;;;1.37;;
32760;SDS011;19126;47.472;7.850;2022-08-21T09:51:04;6.82;;;1.00;;
32760;SDS011;19126;47.472;7.850;2022-08-21T09:53:37;1.20;;;1.10;;
32760;SDS011;19126;47.472;7.850;2022-08-21T09:56:16;1.35;;;0.90;;
32760;SDS011;19126;47.472;7.850;2022-08-21T09:59:14;1.63;;;1.02;;
32760;SDS011;19126;47.472;7.850;2022-08-21T10:01:53;1.95;;;1.30;;
32760;SDS011;19126;47.472;7.850;2022-08-21T10:04:22;1.10;;;1.10;;
32760;SDS011;19126;47.472;7.850;2022-08-21T10:06:54;3.08;;;1.10;;
32760;SDS011;19126;47.472;7.850;2022-08-21T10:09:33;3.78;;;1.20;;
32760;SDS011;19126;47.472;7.850;2022-08-21T10:12:07;3.42;;;1.20;;
32760;SDS011;19126;47.472;7.850;2022-08-21T10:14:45;2.23;;;1.20;;
32760;SDS011;19126;47.472;7.850;2022-08-21T10:17:22;2.08;;;1.20;;
32760;SDS011;19126;47.472;7.850;2022-08-21T10:19:59;4.43;;;1.30;;
32760;SDS011;19126;47.472;7.850;2022-08-21T10:22:37;2.05;;;1.30;;
32760;SDS011;19126;47.472;7.850;2022-08-21T10:25:14;1.20;;;1.10;;
32760;SDS011;19126;47.472;7.850;2022-08-21T10:27:50;2.17;;;1.10;;
32760;SDS011;19126;47.472;7.850;2022-08-21T10:30:29;1.48;;;1.38;;
32760;SDS011;19126;47.472;7.850;2022-08-21T10:33:12;1.40;;;1.30;;
32760;SDS011;19126;47.472;7.850;2022-08-21T10:35:51;2.08;;;1.20;;
32760;SDS011;19126;47.472;7.850;2022-08-21T10:41:38;3.13;;;1.33;;
32760;SDS011;19126;47.472;7.850;2022-08-21T10:44:23;1.45;;;1.33;;
32760;SDS011;19126;47.472;7.850;2022-08-21T10:47:04;3.08;;;0.88;;
32760;SDS011;19126;47.472;7.850;2022-08-21T10:49:39;1.20;;;1.10;;
32760;SDS011;19126;47.472;7.850;2022-08-21T10:55:11;5.05;;;1.23;;
32760;SDS011;19126;47.472;7.850;2022-08-21T10:57:45;1.50;;;1.00;;
32760;SDS011;19126;47.472;7.850;2022-08-21T11:00:17;9.45;;;1.50;;
32760;SDS011;19126;47.472;7.850;2022-08-21T11:02:49;1.23;;;1.05;;
32760;SDS011;19126;47.472;7.850;2022-08-21T11:05:24;0.85;;;0.85;;
32760;SDS011;19126;47.472;7.850;2022-08-21T11:07:58;0.95;;;0.95;;
32760;SDS011;19126;47.472;7.850;2022-08-21T11:10:37;1.10;;;1.00;;
32760;SDS011;19126;47.472;7.850;2022-08-21T11:13:11;1.10;;;0.98;;
32760;SDS011;19126;47.472;7.850;2022-08-21T11:15:46;1.77;;;1.10;;
32760;SDS011;19126;47.472;7.850;2022-08-21T11:18:24;4.80;;;1.33;;
32760;SDS011;19126;47.472;7.850;2022-08-21T11:20:59;1.05;;;0.90;;
32760;SDS011;19126;47.472;7.850;2022-08-21T11:23:42;4.07;;;1.02;;
32760;SDS011;19126;47.472;7.850;2022-08-21T11:26:17;2.08;;;1.10;;
32760;SDS011;19126;47.472;7.850;2022-08-21T11:28:52;1.05;;;0.90;;
32760;SDS011;19126;47.472;7.850;2022-08-21T11:31:32;0.88;;;0.80;;
32760;SDS011;19126;47.472;7.850;2022-08-21T11:34:21;0.82;;;0.82;;
32760;SDS011;19126;47.472;7.850;2022-08-21T11:37:14;1.00;;;1.00;;
32760;SDS011;19126;47.472;7.850;2022-08-21T11:39:52;0.98;;;0.98;;
32760;SDS011;19126;47.472;7.850;2022-08-21T11:42:30;1.15;;;1.00;;
32760;SDS011;19126;47.472;7.850;2022-08-21T11:45:11;2.38;;;1.00;;
32760;SDS011;19126;47.472;7.850;2022-08-21T11:50:23;6.25;;;1.13;;
32760;SDS011;19126;47.472;7.850;2022-08-21T11:55:26;1.45;;;1.23;;
32760;SDS011;19126;47.472;7.850;2022-08-21T11:58:05;1.52;;;1.05;;
32760;SDS011;19126;47.472;7.850;2022-08-21T12:00:39;1.50;;;1.02;;
32760;SDS011;19126;47.472;7.850;2022-08-21T12:03:14;1.25;;;1.13;;
32760;SDS011;19126;47.472;7.850;2022-08-21T12:05:52;2.15;;;1.17;;
32760;SDS011;19126;47.472;7.850;2022-08-21T12:10:59;2.78;;;1.27;;
32760;SDS011;19126;47.472;7.850;2022-08-21T12:13:34;1.27;;;1.10;;
32760;SDS011;19126;47.472;7.850;2022-08-21T12:16:06;4.18;;;1.05;;
32760;SDS011;19126;47.472;7.850;2022-08-21T12:18:36;2.60;;;1.10;;
32760;SDS011;19126;47.472;7.850;2022-08-21T12:21:05;1.25;;;0.93;;
32760;SDS011;19126;47.472;7.850;2022-08-21T12:23:47;9.10;;;1.27;;
32760;SDS011;19126;47.472;7.850;2022-08-21T12:26:28;1.55;;;1.00;;
32760;SDS011;19126;47.472;7.850;2022-08-21T12:29:11;2.25;;;1.27;;
32760;SDS011;19126;47.472;7.850;2022-08-21T12:31:48;1.23;;;0.80;;
32760;SDS011;19126;47.472;7.850;2022-08-21T12:34:23;2.10;;;0.90;;
32760;SDS011;19126;47.472;7.850;2022-08-21T12:36:59;0.93;;;0.80;;
32760;SDS011;19126;47.472;7.850;2022-08-21T12:39:31;2.15;;;1.15;;
32760;SDS011;19126;47.472;7.850;2022-08-21T12:42:05;2.20;;;1.00;;
32760;SDS011;19126;47.472;7.850;2022-08-21T12:44:44;2.35;;;0.95;;
32760;SDS011;19126;47.472;7.850;2022-08-21T12:47:21;1.60;;;0.95;;
32760;SDS011;19126;47.472;7.850;2022-08-21T12:49:57;2.15;;;1.10;;
32760;SDS011;19126;47.472;7.850;2022-08-21T12:52:32;3.05;;;0.95;;
32760;SDS011;19126;47.472;7.850;2022-08-21T12:55:03;3.20;;;0.90;;
32760;SDS011;19126;47.472;7.850;2022-08-21T12:57:31;2.03;;;1.13;;
32760;SDS011;19126;47.472;7.850;2022-08-21T13:00:04;3.65;;;0.90;;
32760;SDS011;19126;47.472;7.850;2022-08-21T13:02:38;2.67;;;1.10;;
32760;SDS011;19126;47.472;7.850;2022-08-21T13:05:14;3.15;;;1.05;;
32760;SDS011;19126;47.472;7.850;2022-08-21T13:07:49;2.25;;;1.05;;
32760;SDS011;19126;47.472;7.850;2022-08-21T13:10:18;2.95;;;1.27;;
32760;SDS011;19126;47.472;7.850;2022-08-21T13:12:50;1.92;;;0.90;;
32760;SDS011;19126;47.472;7.850;2022-08-21T13:15:23;3.50;;;0.98;;
32760;SDS011;19126;47.472;7.850;2022-08-21T13:17:55;1.50;;;0.90;;
32760;SDS011;19126;47.472;7.850;2022-08-21T13:22:55;1.90;;;1.15;;
32760;SDS011;19126;47.472;7.850;2022-08-21T13:25:26;1.98;;;1.08;;
32760;SDS011;19126;47.472;7.850;2022-08-21T13:28:00;1.60;;;0.98;;
32760;SDS011;19126;47.472;7.850;2022-08-21T13:30:39;2.05;;;0.80;;
32760;SDS011;19126;47.472;7.850;2022-08-21T13:33:11;5.53;;;1.35;;
32760;SDS011;19126;47.472;7.850;2022-08-21T13:35:48;2.70;;;0.90;;
32760;SDS011;19126;47.472;7.850;2022-08-21T13:38:24;5.30;;;1.02;;
32760;SDS011;19126;47.472;7.850;2022-08-21T13:40:55;3.67;;;0.70;;
32760;SDS011;19126;47.472;7.850;2022-08-21T13:43:26;1.33;;;0.65;;
32760;SDS011;19126;47.472;7.850;2022-08-21T13:45:58;5.53;;;1.20;;
32760;SDS011;19126;47.472;7.850;2022-08-21T13:48:29;1.80;;;0.90;;
32760;SDS011;19126;47.472;7.850;2022-08-21T13:53:29;1.75;;;1.13;;
32760;SDS011;19126;47.472;7.850;2022-08-21T13:56:00;1.23;;;1.00;;
32760;SDS011;19126;47.472;7.850;2022-08-21T13:58:30;2.22;;;0.70;;
32760;SDS011;19126;47.472;7.850;2022-08-21T14:01:15;1.30;;;0.80;;
32760;SDS011;19126;47.472;7.850;2022-08-21T14:03:47;1.38;;;0.80;;
32760;SDS011;19126;47.472;7.850;2022-08-21T14:06:18;3.90;;;0.80;;
32760;SDS011;19126;47.472;7.850;2022-08-21T14:08:50;1.38;;;0.73;;
32760;SDS011;19126;47.472;7.850;2022-08-21T14:11:20;1.23;;;0.75;;
32760;SDS011;19126;47.472;7.850;2022-08-21T14:13:48;3.65;;;0.95;;
32760;SDS011;19126;47.472;7.850;2022-08-21T14:16:25;1.40;;;1.00;;
32760;SDS011;19126;47.472;7.850;2022-08-21T14:19:07;7.75;;;1.10;;
32760;SDS011;19126;47.472;7.850;2022-08-21T14:21:39;3.42;;;0.90;;
32760;SDS011;19126;47.472;7.850;2022-08-21T14:24:09;2.30;;;1.05;;
32760;SDS011;19126;47.472;7.850;2022-08-21T14:26:43;2.50;;;1.20;;
32760;SDS011;19126;47.472;7.850;2022-08-21T14:29:15;2.67;;;1.30;;
32760;SDS011;19126;47.472;7.850;2022-08-21T14:31:50;7.57;;;1.23;;
32760;SDS011;19126;47.472;7.850;2022-08-21T14:34:20;5.35;;;1.05;;
32760;SDS011;19126;47.472;7.850;2022-08-21T14:36:49;3.50;;;0.98;;
32760;SDS011;19126;47.472;7.850;2022-08-21T14:39:17;4.57;;;1.13;;
32760;SDS011;19126;47.472;7.850;2022-08-21T14:41:44;4.75;;;1.17;;
32760;SDS011;19126;47.472;7.850;2022-08-21T14:44:13;2.53;;;1.30;;
32760;SDS011;19126;47.472;7.850;2022-08-21T14:46:42;3.80;;;1.00;;
32760;SDS011;19126;47.472;7.850;2022-08-21T14:49:11;1.52;;;0.95;;
32760;SDS011;19126;47.472;7.850;2022-08-21T14:51:38;7.45;;;1.10;;
32760;SDS011;19126;47.472;7.850;2022-08-21T14:54:05;1.80;;;1.00;;
32760;SDS011;19126;47.472;7.850;2022-08-21T14:56:33;2.00;;;1.08;;
32760;SDS011;19126;47.472;7.850;2022-08-21T14:59:02;2.10;;;1.00;;
32760;SDS011;19126;47.472;7.850;2022-08-21T15:04:02;1.10;;;0.82;;
32760;SDS011;19126;47.472;7.850;2022-08-21T15:06:31;2.15;;;0.93;;
32760;SDS011;19126;47.472;7.850;2022-08-21T15:08:58;4.45;;;0.90;;
32760;SDS011;19126;47.472;7.850;2022-08-21T15:11:27;3.63;;;1.23;;
32760;SDS011;19126;47.472;7.850;2022-08-21T15:13:56;2.67;;;0.80;;
32760;SDS011;19126;47.472;7.850;2022-08-21T15:18:54;4.10;;;1.00;;
32760;SDS011;19126;47.472;7.850;2022-08-21T15:21:21;1.65;;;1.10;;
32760;SDS011;19126;47.472;7.850;2022-08-21T15:23:49;3.88;;;1.02;;
32760;SDS011;19126;47.472;7.850;2022-08-21T15:26:17;6.32;;;1.27;;
32760;SDS011;19126;47.472;7.850;2022-08-21T15:28:46;5.65;;;1.92;;
32760;SDS011;19126;47.472;7.850;2022-08-21T15:31:13;8.07;;;1.20;;
32760;SDS011;19126;47.472;7.850;2022-08-21T15:33:40;4.07;;;0.98;;